createdAt,value
2023-07-11T00:01:21.345Z,56.44
2023-07-11T00:03:50.334Z,56.48
2023-07-11T00:06:20.609Z,56.86
2023-07-11T00:08:47.550Z,57.01
2023-07-11T00:11:17.461Z,57.24
2023-07-11T00:13:44.415Z,56.97
2023-07-11T00:16:13.937Z,57.28
2023-07-11T00:18:41.346Z,57.78
2023-07-11T00:21:08.075Z,58.07
2023-07-11T00:23:34.689Z,57.84
2023-07-11T00:26:01.459Z,58.33
2023-07-11T00:28:28.445Z,58.20
2023-07-11T00:30:55.549Z,58.35
2023-07-11T00:33:24.827Z,58.21
2023-07-11T00:35:53.992Z,58.32
2023-07-11T00:38:21.846Z,58.20
2023-07-11T00:40:49.991Z,58.61
2023-07-11T00:43:19.728Z,58.26
2023-07-11T00:46:12.402Z,58.46
2023-07-11T00:48:49.709Z,58.93
2023-07-11T00:51:26.078Z,59.26
2023-07-11T00:53:52.978Z,59.91
2023-07-11T00:56:23.014Z,60.09
2023-07-11T00:58:50.735Z,59.90
2023-07-11T01:01:21.839Z,60.52
2023-07-11T01:03:49.940Z,60.43
2023-07-11T01:06:20.224Z,60.49
2023-07-11T01:08:49.400Z,61.07
2023-07-11T01:11:17.178Z,60.97
2023-07-11T01:13:44.489Z,60.82
2023-07-11T01:16:11.225Z,61.21
2023-07-11T01:18:38.172Z,61.41
2023-07-11T01:21:06.276Z,61.30
2023-07-11T01:23:34.609Z,61.38
2023-07-11T01:26:03.694Z,61.43
2023-07-11T01:28:30.579Z,61.81
2023-07-11T01:30:57.749Z,61.63
2023-07-11T01:33:26.405Z,62.03
2023-07-11T01:35:56.357Z,62.06
2023-07-11T01:38:26.182Z,62.39
2023-07-11T01:40:55.359Z,62.40
2023-07-11T01:43:24.308Z,62.77
2023-07-11T01:45:51.085Z,63.03
2023-07-11T01:48:17.774Z,62.68
2023-07-11T01:50:46.630Z,63.00
2023-07-11T01:53:13.732Z,63.44
2023-07-11T01:55:40.432Z,63.94
2023-07-11T01:58:09.246Z,63.66
2023-07-11T02:00:35.968Z,63.54
2023-07-11T02:03:02.984Z,64.05
2023-07-11T02:05:32.158Z,63.89
2023-07-11T02:07:58.766Z,64.29
2023-07-11T02:10:25.487Z,64.11
2023-07-11T02:12:52.102Z,64.27
2023-07-11T02:15:21.183Z,64.47
2023-07-11T02:17:50.266Z,64.28
2023-07-11T02:20:16.981Z,64.84
2023-07-11T02:22:43.980Z,65.11
2023-07-11T02:25:12.824Z,64.89
2023-07-11T02:27:39.469Z,64.94
2023-07-11T02:30:09.721Z,65.05
2023-07-11T02:32:40.748Z,65.44
2023-07-11T02:35:07.835Z,65.43
2023-07-11T02:37:34.570Z,65.41
2023-07-11T02:40:03.792Z,65.78
2023-07-11T02:42:30.506Z,65.96
2023-07-11T02:44:59.491Z,66.05
2023-07-11T02:47:26.166Z,66.20
2023-07-11T02:49:52.804Z,65.93
2023-07-11T02:52:21.925Z,66.33
2023-07-11T02:54:50.727Z,66.29
2023-07-11T02:57:17.340Z,66.40
2023-07-11T02:59:44.048Z,66.50
2023-07-11T03:02:10.726Z,66.39
2023-07-11T03:04:39.960Z,66.53
2023-07-11T03:07:06.687Z,66.56
2023-07-11T03:09:34.366Z,66.74
2023-07-11T03:12:00.974Z,66.85
2023-07-11T03:14:27.760Z,66.67
2023-07-11T03:16:54.953Z,66.79
2023-07-11T03:19:22.338Z,66.77
2023-07-11T03:21:49.784Z,66.73
2023-07-11T03:24:16.831Z,66.72
2023-07-11T03:26:47.380Z,66.75
2023-07-11T03:29:15.358Z,67.02
2023-07-11T03:31:42.924Z,66.81
2023-07-11T03:34:09.590Z,66.77
2023-07-11T03:36:36.689Z,67.13
2023-07-11T03:39:04.988Z,67.01
2023-07-11T03:41:34.033Z,66.87
2023-07-11T03:44:03.743Z,67.10
2023-07-11T03:46:30.427Z,66.93
2023-07-11T03:49:03.433Z,67.08
2023-07-11T03:51:30.067Z,67.03
2023-07-11T03:53:56.757Z,67.20
2023-07-11T03:56:23.600Z,67.34
2023-07-11T03:58:51.131Z,67.16
2023-07-11T04:01:20.506Z,67.34
2023-07-11T04:03:47.340Z,67.46
2023-07-11T04:06:14.554Z,67.05
2023-07-11T04:08:41.607Z,67.14
2023-07-11T04:11:10.795Z,67.44
2023-07-11T04:13:37.989Z,66.89
2023-07-11T04:16:05.172Z,67.28
2023-07-11T04:18:35.363Z,66.62
2023-07-11T04:21:02.202Z,63.95
2023-07-11T04:23:29.247Z,60.47
2023-07-11T04:25:56.067Z,58.05
2023-07-11T04:28:24.967Z,55.72
2023-07-11T04:30:51.637Z,54.53
2023-07-11T04:33:19.356Z,53.39
2023-07-11T04:35:48.898Z,54.02
2023-07-11T04:38:15.689Z,56.15
2023-07-11T04:40:46.507Z,57.54
2023-07-11T04:43:16.038Z,55.79
2023-07-11T04:45:44.860Z,51.68
2023-07-11T04:48:11.540Z,48.41
2023-07-11T04:50:43.142Z,45.91
2023-07-11T04:53:12.358Z,43.29
2023-07-11T04:55:39.268Z,41.09
2023-07-11T04:58:05.871Z,40.60
2023-07-11T05:00:32.466Z,41.04
2023-07-11T05:02:59.072Z,41.78
2023-07-11T05:05:27.965Z,39.34
2023-07-11T05:07:54.568Z,37.75
2023-07-11T05:10:23.665Z,35.88
2023-07-11T05:12:52.345Z,34.62
2023-07-11T05:15:19.076Z,33.52
2023-07-11T05:17:50.524Z,32.99
2023-07-11T05:20:17.182Z,32.00
2023-07-11T05:22:46.069Z,30.75
2023-07-11T05:25:12.734Z,30.33
2023-07-11T05:27:41.589Z,29.44
2023-07-11T05:30:09.301Z,28.90
2023-07-11T05:32:38.489Z,28.66
2023-07-11T05:35:10.948Z,27.78
2023-07-11T05:37:37.707Z,27.27
2023-07-11T05:40:07.133Z,26.66
2023-07-11T05:42:33.708Z,26.02
2023-07-11T05:45:00.344Z,25.26
2023-07-11T05:47:27.128Z,25.16
2023-07-11T05:49:53.730Z,25.17
2023-07-11T05:52:22.652Z,24.57
2023-07-11T05:54:49.375Z,23.95
2023-07-11T05:57:16.248Z,23.83
2023-07-11T05:59:42.940Z,23.39
2023-07-11T06:02:10.911Z,23.12
2023-07-11T06:04:37.576Z,22.46
2023-07-11T06:07:06.619Z,22.43
2023-07-11T06:09:35.788Z,22.04
2023-07-11T06:12:04.842Z,21.93
2023-07-11T06:14:31.543Z,21.61
2023-07-11T06:16:58.265Z,21.58
2023-07-11T06:19:25.001Z,21.14
2023-07-11T06:21:51.671Z,20.63
2023-07-11T06:24:18.362Z,20.39
2023-07-11T06:26:45.013Z,20.92
2023-07-11T06:29:11.711Z,20.46
2023-07-11T06:31:38.621Z,20.13
2023-07-11T06:34:05.373Z,19.96
2023-07-11T06:36:32.128Z,19.46
2023-07-11T06:38:58.823Z,19.31
2023-07-11T06:41:25.837Z,19.39
2023-07-11T06:43:54.341Z,19.59
2023-07-11T06:46:21.417Z,19.40
2023-07-11T06:48:48.194Z,19.44
2023-07-11T06:51:17.456Z,19.52
2023-07-11T06:53:44.095Z,19.01
2023-07-11T06:56:11.045Z,18.66
2023-07-11T06:58:40.145Z,18.94
2023-07-11T07:01:13.759Z,18.42
2023-07-11T07:03:46.123Z,18.56
2023-07-11T07:06:14.712Z,18.14
2023-07-11T07:08:42.479Z,17.48
2023-07-11T07:11:10.294Z,17.96
2023-07-11T07:13:39.998Z,18.51
2023-07-11T07:16:13.502Z,18.19
2023-07-11T07:18:42.746Z,17.50
2023-07-11T07:21:11.216Z,17.33
2023-07-11T07:23:38.267Z,17.42
2023-07-11T07:26:05.936Z,16.98
2023-07-11T07:28:34.077Z,17.34
2023-07-11T07:31:04.774Z,16.99
2023-07-11T07:33:34.487Z,16.91
2023-07-11T07:36:06.594Z,16.57
2023-07-11T07:38:34.413Z,16.35
2023-07-11T07:41:05.650Z,16.87
2023-07-11T07:43:34.103Z,16.52
2023-07-11T07:46:02.782Z,16.90
2023-07-11T07:48:29.711Z,16.43
2023-07-11T07:51:09.385Z,17.13
2023-07-11T07:53:36.768Z,16.29
2023-07-11T07:56:15.557Z,16.39
2023-07-11T07:58:44.577Z,16.64
2023-07-11T08:01:14.298Z,16.36
2023-07-11T08:03:44.180Z,16.52
2023-07-11T08:06:16.906Z,16.46
2023-07-11T08:08:46.372Z,16.62
2023-07-11T08:11:15.234Z,16.36
2023-07-11T08:16:29.401Z,17.02
2023-07-11T08:18:58.096Z,17.02
2023-07-11T08:21:25.530Z,16.83
2023-07-11T08:23:52.881Z,16.89
2023-07-11T08:26:20.302Z,17.05
2023-07-11T08:28:47.285Z,17.88
2023-07-11T08:31:15.575Z,18.94
2023-07-11T08:33:43.326Z,18.45
2023-07-11T08:36:12.417Z,18.49
2023-07-11T08:38:39.246Z,19.18
2023-07-11T08:41:30.482Z,19.06
2023-07-11T08:44:03.749Z,18.90
2023-07-11T08:46:42.402Z,18.39
2023-07-11T08:49:18.866Z,18.82
2023-07-11T08:51:52.338Z,19.37
2023-07-11T08:54:40.218Z,19.73
2023-07-11T08:57:11.948Z,19.86
2023-07-11T08:59:48.968Z,20.14
2023-07-11T09:02:29.807Z,20.29
2023-07-11T09:04:57.373Z,21.32
2023-07-11T09:07:41.824Z,22.39
2023-07-11T09:10:56.862Z,23.31
2023-07-11T09:13:48.770Z,23.59
2023-07-11T09:16:36.366Z,22.68
2023-07-11T09:19:24.394Z,23.48
2023-07-11T09:21:58.854Z,24.54
2023-07-11T09:24:38.038Z,25.44
2023-07-11T09:27:26.595Z,25.92
2023-07-11T09:29:58.280Z,25.50
2023-07-11T09:32:35.682Z,25.67
2023-07-11T09:35:16.038Z,25.46
2023-07-11T09:37:47.798Z,25.25
2023-07-11T09:40:38.347Z,25.98
2023-07-11T09:43:06.154Z,26.34
2023-07-11T09:45:42.895Z,25.63
2023-07-11T09:48:15.453Z,25.16
2023-07-11T09:51:02.490Z,25.90
2023-07-11T09:53:35.475Z,26.30
2023-07-11T09:58:35.930Z,27.46
2023-07-11T10:01:08.516Z,26.64
2023-07-11T10:03:37.186Z,26.91
2023-07-11T10:06:07.811Z,26.99
2023-07-11T10:08:37.575Z,26.78
2023-07-11T10:11:07.158Z,26.78
2023-07-11T10:16:07.607Z,27.16
2023-07-11T10:18:36.794Z,27.41
2023-07-11T10:21:32.007Z,27.51
2023-07-11T10:24:03.416Z,28.13
2023-07-11T10:26:32.121Z,28.54
2023-07-11T10:29:08.802Z,28.31
2023-07-11T10:31:51.167Z,28.34
2023-07-11T10:34:51.193Z,28.22
2023-07-11T10:37:30.055Z,28.14
2023-07-11T10:40:20.585Z,28.14
2023-07-11T10:43:00.669Z,27.94
2023-07-11T10:45:34.200Z,27.70
2023-07-11T10:48:08.227Z,27.82
2023-07-11T10:51:01.308Z,28.05
2023-07-11T10:53:36.913Z,28.23
2023-07-11T10:56:14.476Z,28.34
2023-07-11T10:58:43.390Z,28.32
2023-07-11T11:01:19.185Z,28.59
2023-07-11T11:04:41.667Z,28.27
2023-07-11T11:07:31.939Z,27.92
2023-07-11T11:10:14.180Z,28.10
2023-07-11T11:12:57.110Z,27.87
2023-07-11T11:15:41.274Z,27.73
2023-07-11T11:18:40.947Z,27.73
2023-07-11T11:21:30.218Z,27.30
2023-07-11T11:24:22.286Z,27.76
2023-07-11T11:27:18.502Z,27.75
2023-07-11T11:29:51.741Z,28.10
2023-07-11T11:32:28.607Z,27.62
2023-07-11T11:35:25.910Z,27.71
2023-07-11T11:38:06.442Z,27.68
2023-07-11T11:40:42.641Z,27.94
2023-07-11T11:43:20.400Z,28.16
2023-07-11T11:51:12.820Z,28.70
2023-07-11T11:53:51.084Z,28.12
2023-07-11T11:56:25.037Z,27.74
2023-07-11T11:58:58.927Z,27.56
2023-07-11T12:01:47.365Z,27.85
2023-07-11T12:04:33.527Z,28.11
2023-07-11T12:07:04.343Z,28.04
2023-07-11T12:09:54.170Z,27.94
2023-07-11T12:12:56.717Z,27.99
2023-07-11T12:15:33.392Z,28.11
2023-07-11T12:18:24.543Z,27.65
2023-07-11T12:21:16.430Z,27.71
2023-07-11T12:24:38.205Z,27.58
2023-07-11T12:26:42.553Z,28.22
2023-07-11T12:29:52.622Z,28.24
2023-07-11T12:32:34.564Z,28.09
2023-07-11T12:35:07.597Z,27.49
2023-07-11T12:37:58.116Z,27.65
2023-07-11T12:40:27.833Z,27.49
2023-07-11T12:43:00.737Z,27.62
2023-07-11T12:45:38.310Z,27.75
2023-07-11T12:48:04.906Z,27.81
2023-07-11T12:50:52.190Z,27.92
2023-07-11T12:53:22.710Z,28.11
2023-07-11T12:55:57.318Z,28.16
2023-07-11T12:58:27.135Z,28.20
2023-07-11T13:00:56.164Z,28.36
2023-07-11T13:03:25.496Z,28.07
2023-07-11T13:06:22.008Z,28.36
2023-07-11T13:08:49.996Z,28.41
2023-07-11T13:11:23.057Z,28.13
2023-07-11T13:13:51.081Z,28.09
2023-07-11T13:16:23.892Z,28.57
2023-07-11T13:18:52.402Z,28.32
2023-07-11T13:21:22.852Z,28.34
2023-07-11T13:23:50.485Z,28.66
2023-07-11T13:26:23.490Z,28.49
2023-07-11T13:29:18.715Z,28.87
2023-07-11T13:31:47.852Z,29.15
2023-07-11T13:34:18.986Z,29.30
2023-07-11T13:36:49.455Z,29.29
2023-07-11T13:39:22.002Z,29.24
2023-07-11T13:41:53.483Z,29.64
2023-07-11T13:44:31.781Z,29.70
2023-07-11T13:47:03.741Z,29.63
2023-07-11T13:49:40.870Z,29.73
2023-07-11T13:52:42.344Z,29.69
2023-07-11T13:55:26.637Z,29.63
2023-07-11T13:57:54.040Z,29.62
2023-07-11T14:00:23.602Z,30.19
2023-07-11T14:02:51.664Z,30.30
2023-07-11T14:05:24.558Z,30.08
2023-07-11T14:07:58.773Z,30.42
2023-07-11T14:10:30.231Z,30.60
2023-07-11T14:12:58.872Z,30.12
2023-07-11T14:15:28.545Z,29.98
2023-07-11T14:18:01.969Z,30.01
2023-07-11T14:20:31.234Z,29.90
2023-07-11T14:22:58.377Z,29.77
2023-07-11T14:25:32.091Z,29.71
2023-07-11T14:28:01.335Z,30.02
2023-07-11T14:30:30.587Z,30.11
2023-07-11T14:32:57.285Z,30.34
2023-07-11T14:35:26.786Z,30.04
2023-07-11T14:37:54.771Z,30.31
2023-07-11T14:40:30.038Z,30.27
2023-07-11T14:42:56.823Z,30.76
2023-07-11T14:45:25.737Z,30.46
2023-07-11T14:47:57.718Z,30.85
2023-07-11T14:50:27.517Z,30.38
2023-07-11T14:52:54.936Z,30.61
2023-07-11T14:57:58.591Z,30.45
2023-07-11T15:00:27.672Z,30.35
2023-07-11T15:02:54.627Z,30.22
2023-07-11T15:10:29.624Z,30.39
2023-07-11T15:15:34.424Z,30.97
2023-07-11T15:18:01.569Z,31.02
2023-07-11T15:20:28.676Z,31.20
2023-07-11T15:23:02.498Z,30.88
2023-07-11T15:25:37.457Z,31.34
2023-07-11T15:28:23.007Z,31.33
2023-07-11T15:30:52.386Z,31.47
2023-07-11T15:33:29.758Z,31.59
2023-07-11T15:35:58.495Z,31.75
2023-07-11T15:38:25.589Z,31.45
2023-07-11T15:40:56.614Z,31.54
2023-07-11T15:43:27.437Z,31.53
2023-07-11T15:45:56.427Z,31.28
2023-07-11T15:48:23.927Z,31.32
2023-07-11T15:50:52.571Z,31.28
2023-07-11T15:53:19.836Z,31.92
2023-07-11T15:55:49.188Z,32.28
2023-07-11T15:58:23.261Z,32.50
2023-07-11T16:00:50.934Z,32.12
2023-07-11T16:03:23.761Z,32.53
2023-07-11T16:05:52.312Z,33.06
2023-07-11T16:08:24.126Z,32.54
2023-07-11T16:10:55.590Z,33.02
2023-07-11T16:13:24.974Z,32.64
2023-07-11T16:15:54.395Z,32.97
2023-07-11T16:18:24.061Z,33.22
2023-07-11T16:20:53.400Z,33.12
2023-07-11T16:23:22.379Z,33.84
2023-07-11T16:25:49.869Z,34.51
2023-07-11T16:28:27.528Z,35.20
2023-07-11T16:31:00.876Z,35.43
2023-07-11T16:33:28.537Z,35.02
2023-07-11T16:35:59.783Z,35.68
2023-07-11T16:38:32.478Z,36.17
2023-07-11T16:41:00.676Z,36.00
2023-07-11T16:43:30.330Z,36.78
2023-07-11T16:45:58.728Z,37.16
2023-07-11T16:48:29.338Z,37.83
2023-07-11T16:51:00.222Z,38.30
2023-07-11T16:53:31.089Z,38.90
2023-07-11T16:55:58.722Z,39.62
2023-07-11T16:58:39.535Z,39.72
2023-07-11T17:01:08.299Z,40.08
2023-07-11T17:03:35.449Z,39.22
2023-07-11T17:06:02.581Z,40.20
2023-07-11T17:08:32.688Z,40.47
2023-07-11T17:11:00.013Z,40.74
2023-07-11T17:13:35.897Z,40.39
2023-07-11T17:16:06.253Z,40.72
2023-07-11T17:18:33.258Z,40.71
2023-07-11T17:21:02.513Z,40.90
2023-07-11T17:23:29.308Z,41.35
2023-07-11T17:25:56.663Z,41.24
2023-07-11T17:28:27.648Z,41.56
2023-07-11T17:30:57.527Z,41.67
2023-07-11T17:33:31.815Z,41.96
2023-07-11T17:36:02.370Z,42.35
2023-07-11T17:38:31.338Z,42.49
2023-07-11T17:40:58.424Z,42.59
2023-07-11T17:43:27.558Z,43.02
2023-07-11T17:46:20.884Z,43.47
2023-07-11T17:48:46.678Z,43.73
2023-07-11T17:51:14.226Z,44.21
2023-07-11T17:53:44.196Z,44.95
2023-07-11T17:56:14.242Z,45.09
2023-07-11T17:58:41.704Z,45.14
2023-07-11T18:01:19.269Z,45.15
2023-07-11T18:03:47.416Z,45.65
2023-07-11T18:06:22.590Z,45.93
2023-07-11T18:08:50.423Z,45.77
2023-07-11T18:11:17.267Z,46.26
2023-07-11T18:13:46.993Z,46.39
2023-07-11T18:16:18.530Z,46.92
2023-07-11T18:18:47.538Z,46.83
2023-07-11T18:21:16.330Z,47.12
2023-07-11T18:23:42.954Z,47.57
2023-07-11T18:26:17.317Z,47.58
2023-07-11T18:28:47.833Z,47.72
2023-07-11T18:31:21.618Z,47.77
2023-07-11T18:33:50.716Z,47.69
2023-07-11T18:36:27.399Z,47.76
2023-07-11T18:38:58.540Z,47.76
2023-07-11T18:41:27.398Z,47.58
2023-07-11T18:43:54.172Z,47.52
2023-07-11T18:46:25.019Z,46.83
2023-07-11T18:48:51.759Z,46.87
2023-07-11T18:51:18.732Z,46.82
2023-07-11T18:53:45.389Z,47.37
2023-07-11T18:56:18.056Z,48.04
2023-07-11T18:58:45.665Z,48.50
2023-07-11T19:01:15.901Z,48.68
2023-07-11T19:03:42.787Z,48.87
2023-07-11T19:06:18.377Z,49.26
2023-07-11T19:08:48.489Z,49.67
2023-07-11T19:11:18.131Z,50.16
2023-07-11T19:13:45.569Z,50.32
2023-07-11T19:16:23.879Z,49.66
2023-07-11T19:18:52.196Z,49.42
2023-07-11T19:21:23.516Z,49.62
2023-07-11T19:23:50.320Z,49.94
2023-07-11T19:26:30.427Z,49.70
2023-07-11T19:29:01.189Z,50.11
2023-07-11T19:31:35.196Z,50.31
2023-07-11T19:34:02.876Z,50.20
2023-07-11T19:36:31.256Z,50.97
2023-07-11T19:38:58.303Z,51.44
2023-07-11T19:41:29.009Z,51.77
2023-07-11T19:43:55.615Z,52.32
2023-07-11T19:46:24.503Z,52.60
2023-07-11T19:48:51.595Z,52.92
2023-07-11T19:51:18.283Z,53.10
2023-07-11T19:53:45.020Z,53.68
2023-07-11T19:56:23.789Z,53.41
2023-07-11T19:58:53.736Z,53.95
2023-07-11T20:01:20.818Z,53.91
2023-07-11T20:03:48.172Z,53.91
2023-07-11T20:06:21.053Z,54.54
2023-07-11T20:08:49.043Z,54.52
2023-07-11T20:11:16.542Z,54.86
2023-07-11T20:13:45.464Z,55.54
2023-07-11T20:16:15.250Z,55.71
2023-07-11T20:18:42.026Z,55.95
2023-07-11T20:21:19.158Z,55.79
2023-07-11T20:23:49.084Z,56.22
2023-07-11T20:26:26.922Z,56.25
2023-07-11T20:28:54.525Z,56.45
2023-07-11T20:31:22.161Z,56.40
2023-07-11T20:33:51.407Z,56.50
2023-07-11T20:36:19.467Z,56.72
2023-07-11T20:38:46.194Z,56.44
2023-07-11T20:41:16.514Z,56.68
2023-07-11T20:43:44.275Z,56.56
2023-07-11T20:46:20.900Z,56.38
2023-07-11T20:48:48.880Z,56.71
2023-07-11T20:51:18.296Z,56.43
2023-07-11T20:53:48.923Z,56.20
2023-07-11T20:56:22.285Z,56.13
2023-07-11T20:58:50.538Z,55.73
2023-07-11T21:01:21.276Z,55.43
2023-07-11T21:03:48.732Z,55.47
2023-07-11T21:06:27.291Z,55.37
2023-07-11T21:08:54.011Z,55.35
2023-07-11T21:11:20.911Z,55.35
2023-07-11T21:13:52.318Z,55.29
2023-07-11T21:16:22.012Z,54.93
2023-07-11T21:18:49.026Z,55.41
2023-07-11T21:21:16.194Z,55.57
2023-07-11T21:23:46.044Z,56.89
2023-07-11T21:26:16.338Z,58.39
2023-07-11T21:28:44.166Z,59.34
2023-07-11T21:31:13.759Z,61.52
2023-07-11T21:33:43.292Z,61.79
2023-07-11T21:36:19.888Z,63.17
2023-07-11T21:38:47.975Z,64.83
2023-07-11T21:41:17.368Z,65.84
2023-07-11T21:43:48.263Z,66.53
2023-07-11T21:46:41.398Z,65.31
2023-07-11T21:49:11.500Z,66.78
2023-07-11T21:51:38.274Z,67.39
2023-07-11T21:54:07.245Z,67.40
2023-07-11T21:56:33.901Z,68.30
2023-07-11T21:59:05.680Z,68.26
2023-07-11T22:01:32.865Z,68.35
2023-07-11T22:04:01.990Z,68.51
2023-07-11T22:06:31.665Z,68.90
2023-07-11T22:08:58.883Z,69.19
2023-07-11T22:11:25.701Z,69.05
2023-07-11T22:13:52.728Z,69.82
2023-07-11T22:16:28.742Z,69.61
2023-07-11T22:18:58.583Z,70.11
2023-07-11T22:21:26.918Z,70.34
2023-07-11T22:23:54.125Z,70.74
2023-07-11T22:26:32.238Z,70.95
2023-07-11T22:29:01.754Z,71.26
2023-07-11T22:31:28.764Z,71.48
2023-07-11T22:33:55.767Z,71.76
2023-07-11T22:36:24.998Z,71.87
2023-07-11T22:38:51.587Z,71.95
2023-07-11T22:41:18.333Z,71.61
2023-07-11T22:43:46.957Z,71.48
2023-07-11T22:46:17.912Z,71.76
2023-07-11T22:48:48.294Z,71.71
2023-07-11T22:51:18.309Z,71.37
2023-07-11T22:53:45.852Z,71.46
2023-07-11T22:56:22.285Z,71.20
2023-07-11T22:58:50.081Z,70.93
2023-07-11T23:01:19.258Z,71.17
2023-07-11T23:03:48.974Z,71.01
2023-07-11T23:06:28.039Z,70.79
2023-07-11T23:08:58.568Z,70.38
2023-07-11T23:11:26.765Z,70.86
2023-07-11T23:13:53.474Z,71.10
2023-07-11T23:16:30.339Z,71.01
2023-07-11T23:19:01.014Z,71.01
2023-07-11T23:21:31.207Z,71.33
2023-07-11T23:24:01.817Z,71.05
2023-07-11T23:26:29.622Z,71.09
2023-07-11T23:28:56.647Z,71.35
2023-07-11T23:31:24.069Z,71.56
2023-07-11T23:33:53.131Z,71.13
2023-07-11T23:36:25.722Z,71.53
2023-07-11T23:38:53.974Z,71.11
2023-07-11T23:41:24.460Z,71.79
2023-07-11T23:43:53.207Z,71.56
2023-07-11T23:46:26.920Z,72.18
2023-07-11T23:48:54.644Z,72.34
2023-07-11T23:51:23.310Z,72.42
2023-07-11T23:53:51.176Z,72.81
2023-07-11T23:56:39.691Z,72.66
2023-07-11T23:59:06.605Z,72.75
